createdAt,value
2022-10-01T00:01:26.309Z,4.72
2022-10-01T00:03:53.725Z,5.73
2022-10-01T00:06:22.445Z,5.53
2022-10-01T00:08:50.902Z,6.60
2022-10-01T00:11:19.796Z,6.60
2022-10-01T00:13:47.630Z,7.93
2022-10-01T00:16:16.623Z,5.20
2022-10-01T00:18:45.605Z,7.72
2022-10-01T00:21:14.728Z,7.63
2022-10-01T00:23:42.595Z,6.80
2022-10-01T00:26:15.546Z,5.90
2022-10-01T00:28:43.416Z,6.27
2022-10-01T00:31:11.242Z,4.38
2022-10-01T00:33:38.626Z,7.57
2022-10-01T00:36:06.942Z,5.63
2022-10-01T00:38:34.534Z,8.13
2022-10-01T00:41:02.060Z,6.40
2022-10-01T00:43:37.739Z,6.00
2022-10-01T00:46:23.689Z,6.25
2022-10-01T00:48:57.466Z,6.13
2022-10-01T00:51:27.380Z,5.22
2022-10-01T00:53:57.217Z,5.50
2022-10-01T00:56:24.787Z,5.55
2022-10-01T00:58:54.247Z,5.97
2022-10-01T01:01:21.683Z,5.75
2022-10-01T01:03:49.180Z,4.85
2022-10-01T01:06:16.490Z,5.53
2022-10-01T01:08:44.049Z,4.97
2022-10-01T01:11:11.322Z,4.10
2022-10-01T01:13:44.984Z,4.18
2022-10-01T01:16:15.341Z,4.80
2022-10-01T01:18:47.971Z,5.50
2022-10-01T01:21:23.650Z,4.57
2022-10-01T01:23:50.964Z,5.10
2022-10-01T01:26:31.590Z,5.50
2022-10-01T01:29:02.757Z,4.88
2022-10-01T01:31:34.348Z,4.40
2022-10-01T01:34:03.284Z,4.85
2022-10-01T01:36:32.638Z,5.75
2022-10-01T01:39:03.995Z,5.78
2022-10-01T01:41:35.238Z,4.10
2022-10-01T01:44:04.316Z,4.23
2022-10-01T01:46:34.334Z,4.70
2022-10-01T01:49:04.263Z,4.90
2022-10-01T01:51:39.693Z,3.88
2022-10-01T01:54:07.057Z,5.32
2022-10-01T01:56:34.554Z,3.33
2022-10-01T01:59:02.058Z,4.55
2022-10-01T02:01:37.841Z,4.22
2022-10-01T02:04:10.705Z,4.70
2022-10-01T02:07:04.413Z,4.50
2022-10-01T02:09:41.909Z,4.53
2022-10-01T02:12:14.920Z,4.05
2022-10-01T02:14:48.044Z,2.72
2022-10-01T02:17:27.519Z,3.72
2022-10-01T02:19:58.684Z,3.33
2022-10-01T02:22:31.789Z,2.43
2022-10-01T02:25:00.725Z,3.97
2022-10-01T02:27:37.203Z,3.22
2022-10-01T02:30:07.898Z,2.92
2022-10-01T02:32:37.726Z,3.83
2022-10-01T02:35:06.520Z,2.77
2022-10-01T02:37:34.752Z,3.97
2022-10-01T02:40:02.949Z,4.43
2022-10-01T02:42:30.798Z,2.80
2022-10-01T02:45:02.655Z,4.28
2022-10-01T02:47:34.178Z,2.70
2022-10-01T02:50:02.610Z,2.85
2022-10-01T02:52:29.908Z,3.70
2022-10-01T02:55:09.895Z,2.83
2022-10-01T02:57:37.681Z,4.00
2022-10-01T03:00:07.184Z,3.50
2022-10-01T03:02:34.856Z,2.95
2022-10-01T03:05:02.281Z,4.03
2022-10-01T03:07:30.984Z,3.70
2022-10-01T03:09:58.475Z,4.03
2022-10-01T03:12:25.823Z,3.47
2022-10-01T03:14:53.783Z,3.45
2022-10-01T03:17:21.198Z,4.30
2022-10-01T03:19:48.755Z,3.80
2022-10-01T03:22:18.507Z,3.85
2022-10-01T03:24:45.817Z,4.17
2022-10-01T03:27:13.300Z,5.35
2022-10-01T03:29:40.622Z,4.97
2022-10-01T03:32:07.996Z,5.20
2022-10-01T03:34:35.303Z,5.47
2022-10-01T03:37:02.687Z,4.83
2022-10-01T03:39:29.963Z,5.53
2022-10-01T03:41:57.248Z,4.55
2022-10-01T03:44:24.620Z,4.75
2022-10-01T03:46:52.212Z,4.90
2022-10-01T03:49:19.495Z,5.33
2022-10-01T03:51:47.137Z,4.68
2022-10-01T03:54:14.600Z,6.07
2022-10-01T03:56:42.688Z,6.10
2022-10-01T03:59:11.086Z,5.32
2022-10-01T04:01:39.302Z,5.97
2022-10-01T04:04:07.227Z,4.97
2022-10-01T04:06:34.520Z,5.45
2022-10-01T04:09:01.955Z,5.40
2022-10-01T04:11:29.217Z,4.93
2022-10-01T04:13:58.006Z,5.10
2022-10-01T04:16:25.560Z,5.82
2022-10-01T04:18:52.980Z,5.88
2022-10-01T04:21:20.307Z,5.60
2022-10-01T04:23:47.736Z,5.53
2022-10-01T04:26:15.012Z,5.63
2022-10-01T04:28:45.142Z,5.43
2022-10-01T04:31:25.025Z,4.90
2022-10-01T04:33:56.031Z,4.55
2022-10-01T04:36:24.303Z,5.32
2022-10-01T04:38:59.368Z,5.60
2022-10-01T04:41:31.006Z,4.85
2022-10-01T04:43:59.954Z,6.03
2022-10-01T04:46:27.744Z,6.10
2022-10-01T04:48:55.051Z,5.95
2022-10-01T04:51:22.297Z,6.10
2022-10-01T04:53:49.604Z,5.15
2022-10-01T04:56:17.094Z,6.75
2022-10-01T04:58:44.400Z,6.25
2022-10-01T05:01:11.809Z,6.60
2022-10-01T05:03:39.855Z,5.53
2022-10-01T05:06:07.215Z,5.55
2022-10-01T05:08:34.499Z,5.97
2022-10-01T05:11:01.758Z,6.20
2022-10-01T05:13:30.347Z,6.65
2022-10-01T05:15:58.112Z,5.40
2022-10-01T05:18:25.526Z,5.90
2022-10-01T05:20:52.858Z,5.55
2022-10-01T05:23:20.148Z,5.43
2022-10-01T05:25:47.509Z,6.40
2022-10-01T05:28:21.300Z,5.60
2022-10-01T05:30:49.613Z,5.32
2022-10-01T05:33:16.908Z,7.03
2022-10-01T05:35:44.550Z,6.55
2022-10-01T05:38:13.094Z,6.72
2022-10-01T05:40:40.456Z,5.83
2022-10-01T05:43:07.747Z,6.50
2022-10-01T05:45:35.883Z,6.78
2022-10-01T05:48:04.919Z,6.57
2022-10-01T05:50:33.182Z,6.55
2022-10-01T05:53:01.085Z,6.63
2022-10-01T05:55:33.381Z,6.15
2022-10-01T05:58:06.824Z,6.88
2022-10-01T06:00:34.693Z,6.32
2022-10-01T06:03:03.202Z,7.38
2022-10-01T06:05:31.741Z,6.77
2022-10-01T06:07:59.050Z,6.00
2022-10-01T06:10:29.168Z,6.15
2022-10-01T06:13:01.882Z,5.70
2022-10-01T06:15:30.059Z,6.07
2022-10-01T06:17:57.407Z,5.80
2022-10-01T06:20:24.781Z,7.00
2022-10-01T06:22:56.778Z,5.60
2022-10-01T06:25:24.211Z,5.55
2022-10-01T06:27:58.017Z,5.78
2022-10-01T06:30:29.626Z,4.77
2022-10-01T06:33:02.841Z,5.40
2022-10-01T06:35:30.825Z,5.65
2022-10-01T06:37:58.271Z,5.97
2022-10-01T06:40:25.872Z,5.28
2022-10-01T06:42:56.752Z,5.50
2022-10-01T06:45:24.294Z,5.18
2022-10-01T06:47:58.665Z,5.60
2022-10-01T06:50:26.518Z,4.78
2022-10-01T06:52:54.128Z,4.80
2022-10-01T06:55:23.066Z,4.80
2022-10-01T06:57:55.566Z,3.85
2022-10-01T07:00:22.983Z,4.40
2022-10-01T07:02:50.418Z,3.60
2022-10-01T07:05:18.166Z,4.05
2022-10-01T07:07:45.441Z,3.87
2022-10-01T07:10:13.183Z,4.13
2022-10-01T07:12:40.740Z,5.90
2022-10-01T07:15:09.158Z,3.90
2022-10-01T07:17:43.869Z,3.90
2022-10-01T07:20:11.286Z,3.20
2022-10-01T07:22:38.755Z,3.38
2022-10-01T07:25:06.332Z,3.70
2022-10-01T07:27:33.729Z,4.30
2022-10-01T07:30:01.141Z,4.78
2022-10-01T07:32:31.570Z,4.83
2022-10-01T07:34:59.264Z,4.78
2022-10-01T07:37:26.635Z,3.85
2022-10-01T07:39:54.168Z,3.55
2022-10-01T07:42:21.762Z,4.22
2022-10-01T07:44:49.064Z,3.40
2022-10-01T07:47:16.555Z,3.28
2022-10-01T07:49:43.922Z,3.10
2022-10-01T07:52:13.475Z,3.15
2022-10-01T07:54:40.901Z,3.10
2022-10-01T07:57:11.092Z,2.33
2022-10-01T07:59:40.921Z,2.58
2022-10-01T08:02:15.798Z,2.42
2022-10-01T08:05:02.121Z,2.42
2022-10-01T08:07:31.870Z,2.95
2022-10-01T08:09:59.142Z,2.50
2022-10-01T08:12:30.468Z,3.33
2022-10-01T08:14:57.830Z,3.22
2022-10-01T08:17:29.344Z,2.67
2022-10-01T08:19:56.932Z,2.92
2022-10-01T08:22:24.219Z,3.53
2022-10-01T08:24:51.544Z,2.78
2022-10-01T08:27:18.925Z,3.55
2022-10-01T08:29:46.308Z,3.60
2022-10-01T08:32:13.664Z,4.15
2022-10-01T08:34:41.039Z,3.30
2022-10-01T08:37:08.425Z,3.13
2022-10-01T08:39:37.122Z,3.50
2022-10-01T08:42:08.869Z,3.25
2022-10-01T08:44:44.141Z,3.10
2022-10-01T08:47:15.674Z,3.17
2022-10-01T08:49:45.848Z,3.33
2022-10-01T08:52:32.671Z,3.83
2022-10-01T08:55:11.465Z,2.55
2022-10-01T08:57:42.297Z,3.10
2022-10-01T09:00:14.373Z,3.53
2022-10-01T09:02:43.486Z,2.65
2022-10-01T09:05:19.922Z,2.80
2022-10-01T09:08:05.603Z,2.60
2022-10-01T09:10:47.121Z,2.25
2022-10-01T09:13:17.427Z,2.20
2022-10-01T09:15:59.415Z,2.05
2022-10-01T09:18:35.329Z,2.53
2022-10-01T09:21:03.433Z,2.40
2022-10-01T09:23:32.183Z,2.13
2022-10-01T09:26:00.010Z,1.70
2022-10-01T09:28:36.731Z,2.75
2022-10-01T09:31:17.333Z,1.92
2022-10-01T09:33:59.244Z,2.88
2022-10-01T09:36:34.265Z,2.55
2022-10-01T09:39:10.662Z,1.60
2022-10-01T09:41:38.858Z,2.00
2022-10-01T09:44:06.863Z,2.05
2022-10-01T09:46:34.421Z,1.90
2022-10-01T09:49:01.963Z,1.88
2022-10-01T09:51:34.057Z,1.90
2022-10-01T09:54:04.237Z,1.85
2022-10-01T09:56:35.057Z,2.83
2022-10-01T09:59:05.267Z,2.80
2022-10-01T10:01:35.837Z,3.63
2022-10-01T10:04:03.380Z,2.67
2022-10-01T10:06:32.381Z,1.60
2022-10-01T10:09:01.237Z,1.83
2022-10-01T10:11:30.910Z,1.70
2022-10-01T10:14:00.313Z,2.00
2022-10-01T10:16:29.247Z,1.90
2022-10-01T10:19:03.747Z,1.40
2022-10-01T10:21:34.002Z,2.58
2022-10-01T10:24:03.092Z,1.75
2022-10-01T10:26:32.633Z,2.25
2022-10-01T10:29:02.198Z,1.50
2022-10-01T10:31:36.653Z,2.20
2022-10-01T10:34:07.212Z,1.85
2022-10-01T10:36:36.476Z,1.50
2022-10-01T10:39:05.939Z,2.10
2022-10-01T10:41:35.204Z,1.73
2022-10-01T10:44:07.293Z,1.52
2022-10-01T10:46:44.029Z,1.60
2022-10-01T10:49:18.861Z,1.70
2022-10-01T10:51:51.390Z,1.60
2022-10-01T10:54:20.062Z,1.30
2022-10-01T10:56:54.935Z,1.77
2022-10-01T10:59:22.291Z,1.73
2022-10-01T11:01:50.787Z,1.70
2022-10-01T11:04:25.050Z,1.60
2022-10-01T11:06:56.417Z,1.90
2022-10-01T11:09:24.959Z,1.85
2022-10-01T11:12:25.085Z,1.95
2022-10-01T11:14:58.031Z,1.20
2022-10-01T11:17:35.158Z,2.40
2022-10-01T11:20:08.999Z,1.13
2022-10-01T11:22:36.258Z,1.38
2022-10-01T11:25:03.538Z,1.80
2022-10-01T11:27:49.211Z,1.20
2022-10-01T11:30:22.632Z,1.50
2022-10-01T11:33:03.506Z,1.63
2022-10-01T11:35:42.262Z,1.90
2022-10-01T11:38:37.938Z,2.10
2022-10-01T11:41:24.220Z,1.90
2022-10-01T11:43:56.438Z,2.45
2022-10-01T11:46:33.351Z,2.03
2022-10-01T11:49:03.891Z,1.85
2022-10-01T11:51:36.941Z,2.08
2022-10-01T11:54:07.814Z,2.55
2022-10-01T11:56:57.101Z,1.77
2022-10-01T11:59:29.510Z,1.87
2022-10-01T12:02:15.843Z,1.60
2022-10-01T12:04:47.618Z,2.17
2022-10-01T12:07:22.638Z,2.15
2022-10-01T12:09:55.833Z,1.55
2022-10-01T12:12:38.280Z,1.47
2022-10-01T12:15:20.440Z,1.63
2022-10-01T12:17:52.250Z,1.73
2022-10-01T12:20:32.302Z,2.05
2022-10-01T12:23:00.564Z,2.10
2022-10-01T12:25:33.068Z,2.20
2022-10-01T12:28:13.441Z,2.42
2022-10-01T12:30:51.415Z,2.25
2022-10-01T12:33:31.373Z,2.28
2022-10-01T12:36:07.710Z,2.25
2022-10-01T12:38:41.121Z,1.30
2022-10-01T12:41:42.111Z,1.70
2022-10-01T12:44:15.598Z,1.90
2022-10-01T12:46:46.396Z,1.92
2022-10-01T12:49:13.691Z,2.28
2022-10-01T12:51:54.148Z,2.20
2022-10-01T12:54:30.236Z,2.15
2022-10-01T12:57:12.743Z,2.00
2022-10-01T12:59:40.912Z,2.97
2022-10-01T13:02:23.724Z,2.08
2022-10-01T13:05:26.869Z,2.53
2022-10-01T13:07:56.571Z,1.70
2022-10-01T13:10:23.888Z,1.40
2022-10-01T13:13:01.230Z,1.77
2022-10-01T13:15:39.122Z,1.95
2022-10-01T13:18:09.521Z,2.17
2022-10-01T13:20:54.067Z,2.60
2022-10-01T13:23:39.912Z,2.30
2022-10-01T13:26:11.916Z,2.08
2022-10-01T13:28:53.266Z,2.15
2022-10-01T13:31:20.634Z,1.90
2022-10-01T13:33:57.737Z,2.03
2022-10-01T13:36:36.594Z,1.70
2022-10-01T13:39:04.106Z,1.67
2022-10-01T13:41:33.181Z,2.20
2022-10-01T13:44:03.810Z,1.50
2022-10-01T13:46:32.865Z,1.90
2022-10-01T13:49:07.384Z,1.98
2022-10-01T13:51:38.045Z,1.80
2022-10-01T13:54:09.319Z,2.00
2022-10-01T13:56:37.819Z,1.93
2022-10-01T13:59:20.949Z,1.88
2022-10-01T14:01:48.309Z,1.60
2022-10-01T14:04:24.898Z,2.03
2022-10-01T14:06:56.807Z,1.73
2022-10-01T14:09:27.177Z,1.40
2022-10-01T14:12:34.400Z,1.35
2022-10-01T14:15:22.137Z,2.10
2022-10-01T14:17:53.374Z,1.95
2022-10-01T14:20:25.246Z,2.28
2022-10-01T14:23:04.791Z,2.07
2022-10-01T14:25:53.617Z,1.63
2022-10-01T14:28:30.675Z,2.25
2022-10-01T14:31:06.908Z,2.40
2022-10-01T14:33:53.047Z,1.42
2022-10-01T14:36:29.486Z,1.53
2022-10-01T14:39:14.667Z,1.85
2022-10-01T14:41:42.530Z,1.83
2022-10-01T14:44:36.257Z,2.30
2022-10-01T14:47:13.667Z,2.20
2022-10-01T14:49:40.957Z,2.30
2022-10-01T14:52:16.643Z,1.80
2022-10-01T14:55:04.978Z,1.52
2022-10-01T14:57:36.977Z,1.98
2022-10-01T15:00:11.035Z,2.35
2022-10-01T15:02:48.319Z,1.00
2022-10-01T15:05:29.410Z,1.80
2022-10-01T15:07:56.688Z,1.85
2022-10-01T15:10:27.340Z,1.95
2022-10-01T15:12:55.384Z,1.55
2022-10-01T15:15:29.652Z,1.80
2022-10-01T15:17:57.056Z,1.75
2022-10-01T15:20:24.324Z,1.88
2022-10-01T15:23:01.064Z,2.17
2022-10-01T15:25:29.910Z,2.08
2022-10-01T15:27:57.250Z,2.30
2022-10-01T15:30:26.423Z,1.40
2022-10-01T15:32:54.049Z,1.83
2022-10-01T15:35:22.617Z,2.08
2022-10-01T15:37:51.519Z,1.77
2022-10-01T15:40:30.158Z,1.93
2022-10-01T15:43:17.724Z,2.13
2022-10-01T15:45:45.295Z,1.80
2022-10-01T15:48:30.095Z,1.95
2022-10-01T15:51:02.943Z,1.73
2022-10-01T15:53:30.602Z,1.50
2022-10-01T15:55:59.966Z,1.80
2022-10-01T15:58:32.487Z,1.98
2022-10-01T16:01:10.363Z,1.38
2022-10-01T16:03:42.460Z,1.90
2022-10-01T16:06:23.731Z,1.67
2022-10-01T16:08:51.040Z,1.70
2022-10-01T16:11:20.197Z,2.03
2022-10-01T16:13:49.209Z,2.22
2022-10-01T16:16:20.962Z,1.95
2022-10-01T16:18:52.574Z,2.03
2022-10-01T16:21:19.950Z,1.80
2022-10-01T16:23:49.478Z,2.47
2022-10-01T16:26:29.000Z,2.08
2022-10-01T16:28:56.293Z,1.98
2022-10-01T16:31:24.578Z,2.27
2022-10-01T16:33:52.390Z,1.92
2022-10-01T16:36:20.738Z,2.28
2022-10-01T16:38:48.646Z,1.63
2022-10-01T16:41:19.692Z,4.13
2022-10-01T16:43:46.990Z,2.20
2022-10-01T16:46:14.321Z,1.75
2022-10-01T16:48:41.661Z,2.60
2022-10-01T16:51:09.025Z,1.73
2022-10-01T16:53:36.372Z,2.22
2022-10-01T16:56:03.656Z,1.77
2022-10-01T16:58:30.970Z,1.98
2022-10-01T17:00:58.424Z,1.98
2022-10-01T17:03:26.928Z,2.30
2022-10-01T17:05:54.249Z,1.95
2022-10-01T17:08:28.013Z,2.73
2022-10-01T17:10:59.101Z,2.00
2022-10-01T17:13:27.511Z,2.00
2022-10-01T17:15:54.999Z,1.60
2022-10-01T17:18:22.618Z,2.25
2022-10-01T17:20:50.123Z,3.47
2022-10-01T17:23:18.655Z,2.05
2022-10-01T17:25:46.564Z,2.03
2022-10-01T17:28:15.706Z,1.60
2022-10-01T17:30:48.157Z,2.50
2022-10-01T17:33:16.439Z,1.83
2022-10-01T17:35:44.723Z,1.98
2022-10-01T17:38:12.433Z,2.50
2022-10-01T17:40:41.350Z,2.30
2022-10-01T17:43:10.864Z,3.78
2022-10-01T17:45:38.306Z,2.40
2022-10-01T17:48:05.775Z,1.90
2022-10-01T17:50:33.166Z,2.28
2022-10-01T17:53:00.860Z,2.17
2022-10-01T17:55:28.559Z,1.92
2022-10-01T17:57:56.025Z,2.13
2022-10-01T18:00:23.333Z,2.20
2022-10-01T18:02:50.991Z,2.78
2022-10-01T18:05:18.310Z,2.00
2022-10-01T18:07:45.673Z,1.90
2022-10-01T18:10:13.722Z,2.07
2022-10-01T18:12:41.468Z,2.40
2022-10-01T18:15:09.463Z,2.92
2022-10-01T18:17:42.903Z,2.90
2022-10-01T18:20:10.898Z,2.08
2022-10-01T18:22:38.476Z,2.00
2022-10-01T18:25:07.041Z,2.60
2022-10-01T18:27:34.800Z,2.42
2022-10-01T18:30:02.111Z,2.45
2022-10-01T18:32:34.739Z,2.33
2022-10-01T18:35:02.828Z,1.80
2022-10-01T18:37:36.326Z,2.05
2022-10-01T18:40:30.514Z,2.58
2022-10-01T18:43:09.231Z,2.67
2022-10-01T18:45:45.829Z,2.45
2022-10-01T18:48:16.162Z,2.57
2022-10-01T18:50:43.419Z,2.17
2022-10-01T18:53:14.665Z,2.80
2022-10-01T18:55:50.205Z,2.78
2022-10-01T18:58:20.576Z,2.80
2022-10-01T19:00:56.972Z,3.20
2022-10-01T19:03:24.499Z,2.53
2022-10-01T19:06:10.675Z,2.42
2022-10-01T19:08:41.042Z,4.10
2022-10-01T19:11:17.982Z,2.42
2022-10-01T19:14:05.148Z,2.07
2022-10-01T19:16:35.873Z,1.92
2022-10-01T19:19:15.595Z,2.60
2022-10-01T19:21:55.479Z,2.08
2022-10-01T19:24:22.771Z,2.60
2022-10-01T19:26:57.694Z,2.43
2022-10-01T19:29:28.727Z,2.10
2022-10-01T19:31:58.519Z,2.08
2022-10-01T19:34:31.865Z,2.47
2022-10-01T19:37:31.705Z,3.75
2022-10-01T19:40:01.985Z,2.20
2022-10-01T19:42:34.775Z,2.55
2022-10-01T19:45:15.313Z,1.90
2022-10-01T19:47:51.197Z,2.95
2022-10-01T19:50:20.416Z,2.33
2022-10-01T19:52:51.492Z,2.13
2022-10-01T19:55:20.145Z,2.30
2022-10-01T19:57:47.944Z,2.15
2022-10-01T20:00:20.204Z,2.33
2022-10-01T20:02:51.270Z,3.13
2022-10-01T20:05:26.356Z,2.47
2022-10-01T20:08:16.228Z,2.65
2022-10-01T20:10:46.761Z,2.40
2022-10-01T20:13:14.115Z,2.03
2022-10-01T20:15:44.621Z,2.30
2022-10-01T20:18:18.177Z,2.33
2022-10-01T20:20:45.422Z,2.00
2022-10-01T20:23:26.020Z,2.63
2022-10-01T20:26:02.069Z,1.95
2022-10-01T20:28:44.796Z,1.80
2022-10-01T20:31:16.313Z,2.40
2022-10-01T20:33:56.579Z,2.58
2022-10-01T20:36:34.032Z,2.35
2022-10-01T20:39:05.740Z,2.00
2022-10-01T20:41:42.574Z,2.67
2022-10-01T20:44:11.782Z,2.50
2022-10-01T20:46:50.213Z,2.53
2022-10-01T20:49:20.630Z,2.47
2022-10-01T20:51:54.688Z,2.50
2022-10-01T20:54:28.619Z,2.05
2022-10-01T20:57:02.001Z,2.33
2022-10-01T20:59:40.896Z,2.72
2022-10-01T21:02:14.178Z,2.60
2022-10-01T21:04:44.212Z,3.45
2022-10-01T21:07:23.873Z,3.10
2022-10-01T21:09:53.275Z,2.83
2022-10-01T21:12:22.466Z,2.58
2022-10-01T21:14:49.782Z,3.42
2022-10-01T21:17:56.743Z,3.10
2022-10-01T21:20:39.860Z,3.40
2022-10-01T21:23:07.174Z,3.43
2022-10-01T21:25:39.971Z,3.03
2022-10-01T21:28:13.525Z,3.15
2022-10-01T21:30:43.940Z,3.17
2022-10-01T21:33:15.606Z,2.80
2022-10-01T21:35:43.140Z,2.83
2022-10-01T21:38:30.309Z,3.97
2022-10-01T21:40:57.862Z,3.25
2022-10-01T21:43:35.836Z,4.07
2022-10-01T21:46:09.647Z,3.67
2022-10-01T21:48:41.439Z,3.73
2022-10-01T21:51:22.376Z,3.33
2022-10-01T21:53:49.684Z,3.28
2022-10-01T21:56:43.347Z,3.47
2022-10-01T21:59:29.506Z,3.30
2022-10-01T22:02:18.211Z,3.50
2022-10-01T22:04:58.876Z,3.30
2022-10-01T22:07:28.804Z,3.15
2022-10-01T22:09:59.687Z,3.60
2022-10-01T22:12:28.783Z,2.97
2022-10-01T22:14:57.309Z,3.77
2022-10-01T22:17:27.566Z,3.25
2022-10-01T22:19:56.945Z,3.13
2022-10-01T22:22:31.387Z,3.75
2022-10-01T22:24:59.963Z,3.35
2022-10-01T22:27:33.486Z,3.33
2022-10-01T22:30:09.812Z,2.00
2022-10-01T22:33:00.519Z,3.13
2022-10-01T22:35:31.482Z,2.83
2022-10-01T22:38:02.881Z,3.28
2022-10-01T22:40:33.571Z,3.07
2022-10-01T22:43:11.710Z,3.08
2022-10-01T22:45:45.216Z,2.63
2022-10-01T22:48:12.515Z,2.83
2022-10-01T22:50:39.774Z,3.35
2022-10-01T22:53:16.242Z,3.60
2022-10-01T22:55:54.319Z,3.78
2022-10-01T22:58:22.198Z,3.15
2022-10-01T23:01:16.434Z,3.65
2022-10-01T23:04:02.749Z,3.20
2022-10-01T23:06:46.539Z,2.70
2022-10-01T23:09:13.816Z,1.98
2022-10-01T23:11:41.110Z,2.13
2022-10-01T23:14:14.674Z,1.90
2022-10-01T23:16:49.726Z,2.33
2022-10-01T23:19:26.340Z,2.00
2022-10-01T23:21:57.476Z,2.00
2022-10-01T23:24:37.095Z,1.63
2022-10-01T23:27:19.856Z,1.25
2022-10-01T23:29:59.666Z,1.63
2022-10-01T23:32:40.889Z,1.53
2022-10-01T23:35:18.019Z,1.90
2022-10-01T23:38:02.167Z,1.75
2022-10-01T23:40:32.655Z,1.45
2022-10-01T23:43:26.103Z,1.95
2022-10-01T23:46:11.637Z,1.60
2022-10-01T23:48:58.187Z,1.70
2022-10-01T23:51:27.543Z,1.65
2022-10-01T23:54:07.195Z,2.13
2022-10-01T23:56:48.522Z,2.15
2022-10-01T23:59:22.242Z,1.57
